sensor_id;sensor_type;location;lat;lon;timestamp;pressure;altitude;pressure_sealevel;temperature
71807;BMP280;59655;42.590;23.364;2023-06-14T00:01:43;91261.13;;;16.08
71807;BMP280;59655;42.590;23.364;2023-06-14T00:04:11;91261.19;;;15.99
71807;BMP280;59655;42.590;23.364;2023-06-14T00:06:38;91262.97;;;16.06
71807;BMP280;59655;42.590;23.364;2023-06-14T00:09:14;91265.88;;;16.10
71807;BMP280;59655;42.590;23.364;2023-06-14T00:11:43;91259.81;;;16.09
71807;BMP280;59655;42.590;23.364;2023-06-14T00:14:08;91256.34;;;16.07
71807;BMP280;59655;42.590;23.364;2023-06-14T00:16:34;91255.31;;;16.12
71807;BMP280;59655;42.590;23.364;2023-06-14T00:19:03;91260.28;;;16.06
71807;BMP280;59655;42.590;23.364;2023-06-14T00:21:30;91258.56;;;16.10
71807;BMP280;59655;42.590;23.364;2023-06-14T00:23:57;91251.09;;;16.09
71807;BMP280;59655;42.590;23.364;2023-06-14T00:26:23;91242.50;;;16.10
71807;BMP280;59655;42.590;23.364;2023-06-14T00:28:48;91246.91;;;16.06
71807;BMP280;59655;42.590;23.364;2023-06-14T00:31:14;91242.59;;;16.01
71807;BMP280;59655;42.590;23.364;2023-06-14T00:33:39;91239.22;;;16.00
71807;BMP280;59655;42.590;23.364;2023-06-14T00:36:05;91238.03;;;16.03
71807;BMP280;59655;42.590;23.364;2023-06-14T00:38:30;91239.44;;;16.04
71807;BMP280;59655;42.590;23.364;2023-06-14T00:40:55;91237.69;;;15.97
71807;BMP280;59655;42.590;23.364;2023-06-14T00:43:21;91234.88;;;15.95
71807;BMP280;59655;42.590;23.364;2023-06-14T00:45:46;91233.88;;;15.79
71807;BMP280;59655;42.590;23.364;2023-06-14T00:48:13;91232.50;;;15.78
71807;BMP280;59655;42.590;23.364;2023-06-14T00:50:39;91234.84;;;15.83
71807;BMP280;59655;42.590;23.364;2023-06-14T00:53:07;91228.59;;;15.91
71807;BMP280;59655;42.590;23.364;2023-06-14T00:55:33;91224.63;;;15.92
71807;BMP280;59655;42.590;23.364;2023-06-14T00:57:58;91229.66;;;15.97
71807;BMP280;59655;42.590;23.364;2023-06-14T01:00:24;91218.38;;;15.99
71807;BMP280;59655;42.590;23.364;2023-06-14T01:02:49;91228.97;;;15.97
71807;BMP280;59655;42.590;23.364;2023-06-14T01:05:16;91223.16;;;16.00
71807;BMP280;59655;42.590;23.364;2023-06-14T01:11:02;91223.63;;;15.97
71807;BMP280;59655;42.590;23.364;2023-06-14T01:13:43;91226.25;;;15.85
71807;BMP280;59655;42.590;23.364;2023-06-14T01:16:11;91234.72;;;15.81
71807;BMP280;59655;42.590;23.364;2023-06-14T01:18:38;91230.44;;;15.88
71807;BMP280;59655;42.590;23.364;2023-06-14T01:21:06;91228.31;;;15.86
71807;BMP280;59655;42.590;23.364;2023-06-14T01:23:32;91230.00;;;15.92
71807;BMP280;59655;42.590;23.364;2023-06-14T01:25:59;91229.66;;;15.97
71807;BMP280;59655;42.590;23.364;2023-06-14T01:28:26;91225.72;;;15.98
71807;BMP280;59655;42.590;23.364;2023-06-14T01:30:59;91227.00;;;15.97
71807;BMP280;59655;42.590;23.364;2023-06-14T01:33:28;91233.72;;;15.98
71807;BMP280;59655;42.590;23.364;2023-06-14T01:35:55;91227.91;;;16.02
71807;BMP280;59655;42.590;23.364;2023-06-14T01:38:25;91226.66;;;16.03
71807;BMP280;59655;42.590;23.364;2023-06-14T01:40:54;91233.13;;;16.00
71807;BMP280;59655;42.590;23.364;2023-06-14T01:43:20;91227.56;;;15.96
71807;BMP280;59655;42.590;23.364;2023-06-14T01:45:47;91235.03;;;15.97
71807;BMP280;59655;42.590;23.364;2023-06-14T01:48:14;91229.22;;;16.01
71807;BMP280;59655;42.590;23.364;2023-06-14T01:50:39;91230.94;;;15.96
71807;BMP280;59655;42.590;23.364;2023-06-14T01:53:08;91222.66;;;15.92
71807;BMP280;59655;42.590;23.364;2023-06-14T01:55:34;91227.88;;;15.90
71807;BMP280;59655;42.590;23.364;2023-06-14T01:58:02;91226.63;;;15.91
71807;BMP280;59655;42.590;23.364;2023-06-14T02:00:28;91218.22;;;15.85
71807;BMP280;59655;42.590;23.364;2023-06-14T02:02:54;91228.22;;;15.84
71807;BMP280;59655;42.590;23.364;2023-06-14T02:05:19;91228.94;;;15.85
71807;BMP280;59655;42.590;23.364;2023-06-14T02:07:45;91235.88;;;15.78
71807;BMP280;59655;42.590;23.364;2023-06-14T02:10:11;91232.41;;;15.87
71807;BMP280;59655;42.590;23.364;2023-06-14T02:12:37;91238.59;;;15.90
71807;BMP280;59655;42.590;23.364;2023-06-14T02:15:02;91238.44;;;15.88
71807;BMP280;59655;42.590;23.364;2023-06-14T02:17:28;91241.25;;;15.90
71807;BMP280;59655;42.590;23.364;2023-06-14T02:19:59;91246.84;;;15.94
71807;BMP280;59655;42.590;23.364;2023-06-14T02:22:25;91245.78;;;15.87
71807;BMP280;59655;42.590;23.364;2023-06-14T02:24:51;91248.47;;;15.87
71807;BMP280;59655;42.590;23.364;2023-06-14T02:27:16;91250.44;;;15.87
71807;BMP280;59655;42.590;23.364;2023-06-14T02:29:42;91253.72;;;15.85
71807;BMP280;59655;42.590;23.364;2023-06-14T02:32:08;91240.91;;;15.84
71807;BMP280;59655;42.590;23.364;2023-06-14T02:34:34;91244.25;;;15.84
71807;BMP280;59655;42.590;23.364;2023-06-14T02:37:22;91243.31;;;15.80
71807;BMP280;59655;42.590;23.364;2023-06-14T02:39:48;91250.75;;;15.81
71807;BMP280;59655;42.590;23.364;2023-06-14T02:42:13;91253.56;;;15.83
71807;BMP280;59655;42.590;23.364;2023-06-14T02:44:41;91254.50;;;15.88
71807;BMP280;59655;42.590;23.364;2023-06-14T02:47:18;91254.28;;;15.84
71807;BMP280;59655;42.590;23.364;2023-06-14T02:49:44;91249.00;;;15.74
71807;BMP280;59655;42.590;23.364;2023-06-14T02:52:11;91245.56;;;15.83
71807;BMP280;59655;42.590;23.364;2023-06-14T02:54:37;91250.00;;;15.91
71807;BMP280;59655;42.590;23.364;2023-06-14T02:57:04;91256.28;;;15.95
71807;BMP280;59655;42.590;23.364;2023-06-14T02:59:33;91259.09;;;15.97
71807;BMP280;59655;42.590;23.364;2023-06-14T03:01:58;91264.69;;;16.01
71807;BMP280;59655;42.590;23.364;2023-06-14T03:04:24;91263.44;;;16.02
71807;BMP280;59655;42.590;23.364;2023-06-14T03:06:53;91260.03;;;16.02
71807;BMP280;59655;42.590;23.364;2023-06-14T03:09:19;91268.78;;;16.02
71807;BMP280;59655;42.590;23.364;2023-06-14T03:11:44;91263.16;;;15.98
71807;BMP280;59655;42.590;23.364;2023-06-14T03:14:10;91264.69;;;16.01
71807;BMP280;59655;42.590;23.364;2023-06-14T03:16:38;91260.88;;;16.04
71807;BMP280;59655;42.590;23.364;2023-06-14T03:19:03;91260.88;;;16.04
71807;BMP280;59655;42.590;23.364;2023-06-14T03:21:32;91267.59;;;16.05
71807;BMP280;59655;42.590;23.364;2023-06-14T03:23:57;91266.22;;;16.04
71807;BMP280;59655;42.590;23.364;2023-06-14T03:26:23;91267.25;;;15.99
71807;BMP280;59655;42.590;23.364;2023-06-14T03:28:48;91267.81;;;15.98
71807;BMP280;59655;42.590;23.364;2023-06-14T03:31:15;91264.31;;;15.95
71807;BMP280;59655;42.590;23.364;2023-06-14T03:33:41;91269.91;;;15.99
71807;BMP280;59655;42.590;23.364;2023-06-14T03:36:07;91268.53;;;15.98
71807;BMP280;59655;42.590;23.364;2023-06-14T03:38:33;91264.13;;;16.03
71807;BMP280;59655;42.590;23.364;2023-06-14T03:40:59;91268.31;;;16.06
71807;BMP280;59655;42.590;23.364;2023-06-14T03:43:25;91266.13;;;16.02
71807;BMP280;59655;42.590;23.364;2023-06-14T03:45:50;91274.94;;;16.05
71807;BMP280;59655;42.590;23.364;2023-06-14T03:48:16;91274.25;;;16.04
71807;BMP280;59655;42.590;23.364;2023-06-14T03:50:41;91272.16;;;16.03
71807;BMP280;59655;42.590;23.364;2023-06-14T03:53:08;91269.03;;;16.06
71807;BMP280;59655;42.590;23.364;2023-06-14T03:55:35;91265.16;;;16.09
71807;BMP280;59655;42.590;23.364;2023-06-14T03:58:01;91274.38;;;16.06
71807;BMP280;59655;42.590;23.364;2023-06-14T04:00:26;91281.13;;;16.07
71807;BMP280;59655;42.590;23.364;2023-06-14T04:02:52;91274.50;;;16.08
71807;BMP280;59655;42.590;23.364;2023-06-14T04:05:19;91284.03;;;16.12
71807;BMP280;59655;42.590;23.364;2023-06-14T04:07:47;91280.09;;;16.13
71807;BMP280;59655;42.590;23.364;2023-06-14T04:10:15;91284.88;;;16.14
71807;BMP280;59655;42.590;23.364;2023-06-14T04:12:40;91285.00;;;16.16
71807;BMP280;59655;42.590;23.364;2023-06-14T04:15:06;91287.91;;;16.20
71807;BMP280;59655;42.590;23.364;2023-06-14T04:17:36;91276.63;;;16.22
71807;BMP280;59655;42.590;23.364;2023-06-14T04:20:02;91274.41;;;16.18
71807;BMP280;59655;42.590;23.364;2023-06-14T04:22:33;91273.59;;;16.16
71807;BMP280;59655;42.590;23.364;2023-06-14T04:25:00;91280.47;;;16.19
71807;BMP280;59655;42.590;23.364;2023-06-14T04:27:26;91279.19;;;16.20
71807;BMP280;59655;42.590;23.364;2023-06-14T04:29:53;91283.94;;;16.21
71807;BMP280;59655;42.590;23.364;2023-06-14T04:32:28;91278.59;;;16.21
71807;BMP280;59655;42.590;23.364;2023-06-14T04:35:03;91284.53;;;16.20
71807;BMP280;59655;42.590;23.364;2023-06-14T04:37:29;91286.63;;;16.21
71807;BMP280;59655;42.590;23.364;2023-06-14T04:39:55;91279.78;;;16.18
71807;BMP280;59655;42.590;23.364;2023-06-14T04:42:22;91283.84;;;16.19
71807;BMP280;59655;42.590;23.364;2023-06-14T04:44:51;91295.25;;;16.20
71807;BMP280;59655;42.590;23.364;2023-06-14T04:47:16;91291.53;;;16.25
71807;BMP280;59655;42.590;23.364;2023-06-14T04:49:42;91299.81;;;16.29
71807;BMP280;59655;42.590;23.364;2023-06-14T04:52:07;91289.09;;;16.29
71807;BMP280;59655;42.590;23.364;2023-06-14T04:54:38;91300.78;;;16.33
71807;BMP280;59655;42.590;23.364;2023-06-14T04:57:06;91295.53;;;16.36
71807;BMP280;59655;42.590;23.364;2023-06-14T04:59:32;91290.53;;;16.42
71807;BMP280;59655;42.590;23.364;2023-06-14T05:02:00;91296.69;;;16.44
71807;BMP280;59655;42.590;23.364;2023-06-14T05:04:26;91303.34;;;16.43
71807;BMP280;59655;42.590;23.364;2023-06-14T05:06:53;91295.31;;;16.43
71807;BMP280;59655;42.590;23.364;2023-06-14T05:09:20;91299.38;;;16.44
71807;BMP280;59655;42.590;23.364;2023-06-14T05:11:46;91292.75;;;16.45
71807;BMP280;59655;42.590;23.364;2023-06-14T05:14:13;91296.84;;;16.46
71807;BMP280;59655;42.590;23.364;2023-06-14T05:16:39;91297.09;;;16.50
71807;BMP280;59655;42.590;23.364;2023-06-14T05:19:05;91293.22;;;16.53
71807;BMP280;59655;42.590;23.364;2023-06-14T05:21:31;91301.50;;;16.58
71807;BMP280;59655;42.590;23.364;2023-06-14T05:24:00;91308.28;;;16.59
71807;BMP280;59655;42.590;23.364;2023-06-14T05:26:26;91309.66;;;16.60
71807;BMP280;59655;42.590;23.364;2023-06-14T05:29:07;91321.34;;;16.64
71807;BMP280;59655;42.590;23.364;2023-06-14T05:31:33;91321.47;;;16.66
71807;BMP280;59655;42.590;23.364;2023-06-14T05:33:58;91323.53;;;16.68
71807;BMP280;59655;42.590;23.364;2023-06-14T05:36:24;91326.34;;;16.70
71807;BMP280;59655;42.590;23.364;2023-06-14T05:38:50;91331.16;;;16.71
71807;BMP280;59655;42.590;23.364;2023-06-14T05:41:16;91332.06;;;16.76
71807;BMP280;59655;42.590;23.364;2023-06-14T05:43:42;91323.47;;;16.77
71807;BMP280;59655;42.590;23.364;2023-06-14T05:46:07;91328.38;;;16.81
71807;BMP280;59655;42.590;23.364;2023-06-14T05:48:33;91330.44;;;16.83
71807;BMP280;59655;42.590;23.364;2023-06-14T05:50:58;91336.53;;;16.83
71807;BMP280;59655;42.590;23.364;2023-06-14T05:53:25;91328.38;;;16.81
71807;BMP280;59655;42.590;23.364;2023-06-14T05:55:51;91334.53;;;16.84
71807;BMP280;59655;42.590;23.364;2023-06-14T05:58:20;91329.84;;;16.84
71807;BMP280;59655;42.590;23.364;2023-06-14T06:00:46;91331.16;;;16.83
71807;BMP280;59655;42.590;23.364;2023-06-14T06:03:11;91331.16;;;16.83
71807;BMP280;59655;42.590;23.364;2023-06-14T06:05:38;91338.03;;;16.86
71807;BMP280;59655;42.590;23.364;2023-06-14T06:08:04;91329.28;;;16.86
71807;BMP280;59655;42.590;23.364;2023-06-14T06:10:29;91335.56;;;16.90
71807;BMP280;59655;42.590;23.364;2023-06-14T06:12:55;91339.66;;;16.91
71807;BMP280;59655;42.590;23.364;2023-06-14T06:15:20;91347.84;;;16.93
71807;BMP280;59655;42.590;23.364;2023-06-14T06:17:46;91347.38;;;16.97
71807;BMP280;59655;42.590;23.364;2023-06-14T06:20:11;91344.78;;;16.99
71807;BMP280;59655;42.590;23.364;2023-06-14T06:22:37;91348.28;;;17.01
71807;BMP280;59655;42.590;23.364;2023-06-14T06:25:03;91347.81;;;17.05
71807;BMP280;59655;42.590;23.364;2023-06-14T06:27:29;91349.81;;;17.05
71807;BMP280;59655;42.590;23.364;2023-06-14T06:29:54;91353.31;;;17.07
71807;BMP280;59655;42.590;23.364;2023-06-14T06:32:20;91340.00;;;17.09
71807;BMP280;59655;42.590;23.364;2023-06-14T06:34:46;91357.50;;;17.10
71807;BMP280;59655;42.590;23.364;2023-06-14T06:37:12;91357.63;;;17.12
71807;BMP280;59655;42.590;23.364;2023-06-14T06:39:38;91359.59;;;17.12
71807;BMP280;59655;42.590;23.364;2023-06-14T06:42:03;91363.78;;;17.15
71807;BMP280;59655;42.590;23.364;2023-06-14T06:44:29;91365.22;;;17.16
71807;BMP280;59655;42.590;23.364;2023-06-14T06:46:57;91368.59;;;17.16
71807;BMP280;59655;42.590;23.364;2023-06-14T06:49:22;91367.19;;;17.15
71807;BMP280;59655;42.590;23.364;2023-06-14T06:54:27;91368.13;;;17.20
71807;BMP280;59655;42.590;23.364;2023-06-14T06:56:52;91371.63;;;17.22
71807;BMP280;59655;42.590;23.364;2023-06-14T06:59:18;91368.94;;;17.22
71807;BMP280;59655;42.590;23.364;2023-06-14T07:01:43;91371.63;;;17.22
71807;BMP280;59655;42.590;23.364;2023-06-14T07:04:08;91374.31;;;17.22
71807;BMP280;59655;42.590;23.364;2023-06-14T07:06:34;91368.38;;;17.24
71807;BMP280;59655;42.590;23.364;2023-06-14T07:09:00;91377.34;;;17.29
71807;BMP280;59655;42.590;23.364;2023-06-14T07:11:30;91368.69;;;17.30
71807;BMP280;59655;42.590;23.364;2023-06-14T07:13:55;91369.03;;;17.24
71807;BMP280;59655;42.590;23.364;2023-06-14T07:16:21;91369.75;;;17.25
71807;BMP280;59655;42.590;23.364;2023-06-14T07:18:46;91363.09;;;17.26
71807;BMP280;59655;42.590;23.364;2023-06-14T07:21:12;91362.06;;;17.31
71807;BMP280;59655;42.590;23.364;2023-06-14T07:23:37;91364.53;;;17.39
71807;BMP280;59655;42.590;23.364;2023-06-14T07:26:02;91364.75;;;17.43
71807;BMP280;59655;42.590;23.364;2023-06-14T07:28:28;91354.03;;;17.43
71807;BMP280;59655;42.590;23.364;2023-06-14T07:30:53;91357.06;;;17.49
71807;BMP280;59655;42.590;23.364;2023-06-14T07:33:19;91353.78;;;17.51
71807;BMP280;59655;42.590;23.364;2023-06-14T07:35:44;91362.75;;;17.55
71807;BMP280;59655;42.590;23.364;2023-06-14T07:38:11;91354.81;;;17.57
71807;BMP280;59655;42.590;23.364;2023-06-14T07:40:36;91355.59;;;17.60
71807;BMP280;59655;42.590;23.364;2023-06-14T07:43:02;91360.53;;;17.63
71807;BMP280;59655;42.590;23.364;2023-06-14T07:45:27;91363.56;;;17.69
71807;BMP280;59655;42.590;23.364;2023-06-14T07:47:52;91371.00;;;17.71
71807;BMP280;59655;42.590;23.364;2023-06-14T07:50:18;91372.75;;;17.78
71807;BMP280;59655;42.590;23.364;2023-06-14T07:52:44;91374.28;;;17.81
71807;BMP280;59655;42.590;23.364;2023-06-14T07:55:10;91375.41;;;17.90
71807;BMP280;59655;42.590;23.364;2023-06-14T07:57:35;91375.63;;;17.94
71807;BMP280;59655;42.590;23.364;2023-06-14T08:00:02;91381.00;;;17.94
71807;BMP280;59655;42.590;23.364;2023-06-14T08:02:31;91376.47;;;17.97
71807;BMP280;59655;42.590;23.364;2023-06-14T08:04:56;91380.97;;;18.06
71807;BMP280;59655;42.590;23.364;2023-06-14T08:07:22;91378.41;;;18.08
71807;BMP280;59655;42.590;23.364;2023-06-14T08:09:47;91389.22;;;18.10
71807;BMP280;59655;42.590;23.364;2023-06-14T08:12:13;91397.44;;;18.12
71807;BMP280;59655;42.590;23.364;2023-06-14T08:14:39;91400.34;;;18.16
71807;BMP280;59655;42.590;23.364;2023-06-14T08:31:55;91405.31;;;18.59
71807;BMP280;59655;42.590;23.364;2023-06-14T08:34:21;91407.41;;;18.60
71807;BMP280;59655;42.590;23.364;2023-06-14T08:36:51;91410.09;;;18.60
71807;BMP280;59655;42.590;23.364;2023-06-14T08:39:16;91408.81;;;18.61
71807;BMP280;59655;42.590;23.364;2023-06-14T08:41:45;91403.53;;;18.63
71807;BMP280;59655;42.590;23.364;2023-06-14T08:44:11;91404.94;;;18.64
71807;BMP280;59655;42.590;23.364;2023-06-14T08:46:37;91401.88;;;18.70
71807;BMP280;59655;42.590;23.364;2023-06-14T08:49:03;91406.06;;;18.73
71807;BMP280;59655;42.590;23.364;2023-06-14T08:51:31;91397.28;;;18.73
71807;BMP280;59655;42.590;23.364;2023-06-14T08:54:02;91398.09;;;18.75
71807;BMP280;59655;42.590;23.364;2023-06-14T08:56:30;91396.09;;;18.76
71807;BMP280;59655;42.590;23.364;2023-06-14T08:58:57;91404.66;;;18.72
71807;BMP280;59655;42.590;23.364;2023-06-14T09:01:26;91402.94;;;18.65
71807;BMP280;59655;42.590;23.364;2023-06-14T09:03:52;91402.94;;;18.65
71807;BMP280;59655;42.590;23.364;2023-06-14T09:06:20;91404.13;;;18.62
71807;BMP280;59655;42.590;23.364;2023-06-14T09:08:48;91402.63;;;18.59
71807;BMP280;59655;42.590;23.364;2023-06-14T09:11:16;91401.22;;;18.58
71807;BMP280;59655;42.590;23.364;2023-06-14T09:13:44;91403.81;;;18.56
71807;BMP280;59655;42.590;23.364;2023-06-14T09:16:09;91411.16;;;18.55
71807;BMP280;59655;42.590;23.364;2023-06-14T09:18:41;91409.06;;;18.54
71807;BMP280;59655;42.590;23.364;2023-06-14T09:21:08;91403.59;;;18.52
71807;BMP280;59655;42.590;23.364;2023-06-14T09:23:38;91406.28;;;18.52
71807;BMP280;59655;42.590;23.364;2023-06-14T09:26:15;91403.00;;;18.53
71807;BMP280;59655;42.590;23.364;2023-06-14T09:28:45;91401.22;;;18.58
71807;BMP280;59655;42.590;23.364;2023-06-14T09:31:20;91410.81;;;18.61
71807;BMP280;59655;42.590;23.364;2023-06-14T09:33:49;91410.81;;;18.61
71807;BMP280;59655;42.590;23.364;2023-06-14T09:36:16;91406.72;;;18.60
71807;BMP280;59655;42.590;23.364;2023-06-14T09:38:52;91406.81;;;18.62
71807;BMP280;59655;42.590;23.364;2023-06-14T09:41:17;91401.19;;;18.70
71807;BMP280;59655;42.590;23.364;2023-06-14T09:43:43;91394.59;;;18.73
71807;BMP280;59655;42.590;23.364;2023-06-14T09:46:10;91394.72;;;18.75
71807;BMP280;59655;42.590;23.364;2023-06-14T09:48:36;91388.84;;;18.78
71807;BMP280;59655;42.590;23.364;2023-06-14T09:51:02;91385.09;;;18.83
71807;BMP280;59655;42.590;23.364;2023-06-14T09:53:30;91390.19;;;18.91
71807;BMP280;59655;42.590;23.364;2023-06-14T09:55:57;91386.91;;;18.93
71807;BMP280;59655;42.590;23.364;2023-06-14T09:58:26;91377.53;;;18.94
71807;BMP280;59655;42.590;23.364;2023-06-14T10:00:52;91377.25;;;19.01
71807;BMP280;59655;42.590;23.364;2023-06-14T10:03:21;91372.75;;;19.06
71807;BMP280;59655;42.590;23.364;2023-06-14T10:05:48;91381.06;;;19.10
71807;BMP280;59655;42.590;23.364;2023-06-14T10:08:20;91377.16;;;19.13
71807;BMP280;59655;42.590;23.364;2023-06-14T10:10:47;91369.88;;;19.16
71807;BMP280;59655;42.590;23.364;2023-06-14T10:13:13;91364.50;;;19.16
71807;BMP280;59655;42.590;23.364;2023-06-14T10:18:38;91365.81;;;19.28
71807;BMP280;59655;42.590;23.364;2023-06-14T10:23:37;91369.53;;;19.35
71807;BMP280;59655;42.590;23.364;2023-06-14T10:26:04;91367.81;;;19.28
71807;BMP280;59655;42.590;23.364;2023-06-14T10:28:30;91368.72;;;19.32
71807;BMP280;59655;42.590;23.364;2023-06-14T10:31:05;91372.31;;;19.37
71807;BMP280;59655;42.590;23.364;2023-06-14T10:33:32;91366.00;;;19.46
71807;BMP280;59655;42.590;23.364;2023-06-14T10:38:58;91360.25;;;19.66
71807;BMP280;59655;42.590;23.364;2023-06-14T10:41:27;91367.41;;;19.61
71807;BMP280;59655;42.590;23.364;2023-06-14T10:46:37;91363.53;;;19.50
71807;BMP280;59655;42.590;23.364;2023-06-14T10:49:03;91364.22;;;19.51
71807;BMP280;59655;42.590;23.364;2023-06-14T10:51:51;91361.94;;;19.45
71807;BMP280;59655;42.590;23.364;2023-06-14T10:54:21;91361.66;;;19.39
71807;BMP280;59655;42.590;23.364;2023-06-14T10:56:49;91352.94;;;19.41
71807;BMP280;59655;42.590;23.364;2023-06-14T10:59:15;91354.97;;;19.40
71807;BMP280;59655;42.590;23.364;2023-06-14T11:01:57;91358.47;;;19.43
71807;BMP280;59655;42.590;23.364;2023-06-14T11:04:34;91348.66;;;19.49
71807;BMP280;59655;42.590;23.364;2023-06-14T11:10:38;91339.31;;;19.50
71807;BMP280;59655;42.590;23.364;2023-06-14T11:13:05;91334.03;;;19.52
71807;BMP280;59655;42.590;23.364;2023-06-14T11:15:31;91347.50;;;19.52
71807;BMP280;59655;42.590;23.364;2023-06-14T11:18:00;91348.66;;;19.49
71807;BMP280;59655;42.590;23.364;2023-06-14T11:20:26;91341.00;;;19.44
71807;BMP280;59655;42.590;23.364;2023-06-14T11:22:53;91342.31;;;19.43
71807;BMP280;59655;42.590;23.364;2023-06-14T11:25:19;91337.72;;;19.45
71807;BMP280;59655;42.590;23.364;2023-06-14T11:27:45;91331.63;;;19.45
71807;BMP280;59655;42.590;23.364;2023-06-14T11:30:11;91336.41;;;19.46
71807;BMP280;59655;42.590;23.364;2023-06-14T11:32:40;91342.69;;;19.51
71807;BMP280;59655;42.590;23.364;2023-06-14T11:35:06;91336.91;;;19.56
71807;BMP280;59655;42.590;23.364;2023-06-14T11:37:32;91340.81;;;19.53
71807;BMP280;59655;42.590;23.364;2023-06-14T11:40:01;91332.59;;;19.65
71807;BMP280;59655;42.590;23.364;2023-06-14T11:42:28;91330.22;;;19.71
71807;BMP280;59655;42.590;23.364;2023-06-14T11:44:54;91328.31;;;19.74
71807;BMP280;59655;42.590;23.364;2023-06-14T11:47:20;91328.41;;;19.76
71807;BMP280;59655;42.590;23.364;2023-06-14T11:49:46;91331.00;;;19.74
71807;BMP280;59655;42.590;23.364;2023-06-14T11:52:12;91319.50;;;19.73
71807;BMP280;59655;42.590;23.364;2023-06-14T11:54:38;91311.25;;;19.69
71807;BMP280;59655;42.590;23.364;2023-06-14T11:57:06;91308.66;;;19.71
71807;BMP280;59655;42.590;23.364;2023-06-14T11:59:38;91306.19;;;19.75
71807;BMP280;59655;42.590;23.364;2023-06-14T12:02:03;91304.97;;;19.78
71807;BMP280;59655;42.590;23.364;2023-06-14T12:04:29;91300.25;;;19.79
71807;BMP280;59655;42.590;23.364;2023-06-14T12:06:55;91295.59;;;19.79
71807;BMP280;59655;42.590;23.364;2023-06-14T12:09:23;91301.84;;;19.84
71807;BMP280;59655;42.590;23.364;2023-06-14T12:11:49;91289.28;;;19.89
71807;BMP280;59655;42.590;23.364;2023-06-14T12:14:15;91296.03;;;19.90
71807;BMP280;59655;42.590;23.364;2023-06-14T12:16:42;91308.03;;;19.87
71807;BMP280;59655;42.590;23.364;2023-06-14T12:19:11;91295.09;;;19.83
71807;BMP280;59655;42.590;23.364;2023-06-14T12:21:38;91299.25;;;19.86
71807;BMP280;59655;42.590;23.364;2023-06-14T12:24:07;91296.47;;;19.84
71807;BMP280;59655;42.590;23.364;2023-06-14T12:26:33;91295.78;;;19.83
71807;BMP280;59655;42.590;23.364;2023-06-14T12:28:59;91297.66;;;19.81
71807;BMP280;59655;42.590;23.364;2023-06-14T12:31:25;91291.50;;;19.78
71807;BMP280;59655;42.590;23.364;2023-06-14T12:33:52;91288.47;;;19.86
71807;BMP280;59655;42.590;23.364;2023-06-14T12:36:17;91286.41;;;19.85
71807;BMP280;59655;42.590;23.364;2023-06-14T12:38:43;91278.22;;;19.82
71807;BMP280;59655;42.590;23.364;2023-06-14T12:41:08;91277.44;;;19.80
71807;BMP280;59655;42.590;23.364;2023-06-14T12:43:34;91275.94;;;19.77
71807;BMP280;59655;42.590;23.364;2023-06-14T12:46:00;91283.22;;;19.74
71807;BMP280;59655;42.590;23.364;2023-06-14T12:48:26;91279.75;;;19.72
71807;BMP280;59655;42.590;23.364;2023-06-14T12:50:56;91282.25;;;19.68
71807;BMP280;59655;42.590;23.364;2023-06-14T12:53:22;91277.38;;;19.64
71807;BMP280;59655;42.590;23.364;2023-06-14T12:55:48;91286.06;;;19.63
71807;BMP280;59655;42.590;23.364;2023-06-14T12:58:13;91289.94;;;19.59
71807;BMP280;59655;42.590;23.364;2023-06-14T13:00:40;91281.16;;;19.59
71807;BMP280;59655;42.590;23.364;2023-06-14T13:03:05;91291.06;;;19.54
71807;BMP280;59655;42.590;23.364;2023-06-14T13:05:31;91287.47;;;19.50
71807;BMP280;59655;42.590;23.364;2023-06-14T13:07:59;91291.03;;;19.41
71807;BMP280;59655;42.590;23.364;2023-06-14T13:10:25;91300.84;;;19.34
71807;BMP280;59655;42.590;23.364;2023-06-14T13:12:52;91302.84;;;19.33
71807;BMP280;59655;42.590;23.364;2023-06-14T13:15:17;91309.50;;;19.32
71807;BMP280;59655;42.590;23.364;2023-06-14T13:17:43;91309.22;;;19.26
71807;BMP280;59655;42.590;23.364;2023-06-14T13:20:14;91326.47;;;19.21
71807;BMP280;59655;42.590;23.364;2023-06-14T13:22:40;91321.69;;;19.20
71807;BMP280;59655;42.590;23.364;2023-06-14T13:25:06;91318.09;;;19.15
71807;BMP280;59655;42.590;23.364;2023-06-14T13:27:32;91323.97;;;19.11
71807;BMP280;59655;42.590;23.364;2023-06-14T13:29:57;91327.97;;;19.10
71807;BMP280;59655;42.590;23.364;2023-06-14T13:32:23;91332.03;;;19.11
71807;BMP280;59655;42.590;23.364;2023-06-14T13:34:49;91331.66;;;19.03
71807;BMP280;59655;42.590;23.364;2023-06-14T13:37:14;91335.53;;;19.00
71807;BMP280;59655;42.590;23.364;2023-06-14T13:39:40;91331.41;;;18.99
71807;BMP280;59655;42.590;23.364;2023-06-14T13:42:06;91335.69;;;18.91
71807;BMP280;59655;42.590;23.364;2023-06-14T13:44:32;91339.66;;;18.89
71807;BMP280;59655;42.590;23.364;2023-06-14T13:46:57;91346.34;;;18.88
71807;BMP280;59655;42.590;23.364;2023-06-14T13:49:22;91342.97;;;18.88
71807;BMP280;59655;42.590;23.364;2023-06-14T13:51:48;91335.66;;;18.77
71807;BMP280;59655;42.590;23.364;2023-06-14T13:54:14;91327.06;;;18.67
71807;BMP280;59655;42.590;23.364;2023-06-14T13:56:42;91312.75;;;18.62
71807;BMP280;59655;42.590;23.364;2023-06-14T13:59:07;91312.31;;;18.54
71807;BMP280;59655;42.590;23.364;2023-06-14T14:01:33;91309.31;;;18.48
71807;BMP280;59655;42.590;23.364;2023-06-14T14:03:58;91303.03;;;18.43
71807;BMP280;59655;42.590;23.364;2023-06-14T14:06:26;91303.53;;;18.39
71807;BMP280;59655;42.590;23.364;2023-06-14T14:08:51;91304.28;;;18.28
71807;BMP280;59655;42.590;23.364;2023-06-14T14:11:18;91312.44;;;18.30
71807;BMP280;59655;42.590;23.364;2023-06-14T14:13:44;91301.81;;;18.32
71807;BMP280;59655;42.590;23.364;2023-06-14T14:16:10;91308.50;;;18.31
71807;BMP280;59655;42.590;23.364;2023-06-14T14:18:35;91312.75;;;18.36
71807;BMP280;59655;42.590;23.364;2023-06-14T14:21:02;91314.06;;;18.35
71807;BMP280;59655;42.590;23.364;2023-06-14T14:23:27;91327.13;;;18.41
71807;BMP280;59655;42.590;23.364;2023-06-14T14:25:53;91326.75;;;18.47
71807;BMP280;59655;42.590;23.364;2023-06-14T14:28:19;91328.72;;;18.46
71807;BMP280;59655;42.590;23.364;2023-06-14T14:30:46;91330.41;;;18.39